Time;durP1;ratioP1;P1;durP2;ratioP2;P2;SDS_P1;SDS_P2;PMS_P1;PMS_P2;Temp;Humidity;BMP_temperature;BMP_pressure;BME280_temperature;BME280_humidity;BME280_pressure;Samples;Min_cycle;Max_cycle;Signal;HPM_P1;HPM_P2
2023/01/06 00:00:00;;;;;;;0.50;0.30;;;11.40;99.90;;;;;;5072270;28;20408;-60
2023/01/06 00:02:27;;;;;;;0.50;0.30;;;11.40;99.90;;;;;;5073241;28;20455;-59
2023/01/06 00:04:54;;;;;;;0.50;0.30;;;11.50;99.90;;;;;;5073093;28;20420;-59
2023/01/06 00:07:21;;;;;;;0.63;0.30;;;11.40;99.90;;;;;;5072428;28;20420;-59
2023/01/06 00:09:49;;;;;;;0.68;0.30;;;11.50;99.90;;;;;;5072695;28;20485;-59
2023/01/06 00:12:17;;;;;;;0.50;0.20;;;11.50;99.90;;;;;;5072363;28;20418;-59
2023/01/06 00:14:46;;;;;;;0.40;0.20;;;11.40;99.90;;;;;;5072174;28;20415;-59
2023/01/06 00:17:13;;;;;;;0.55;0.30;;;11.40;99.90;;;;;;5072345;28;20424;-58
2023/01/06 00:19:41;;;;;;;0.80;0.20;;;11.30;99.90;;;;;;5074744;28;20427;-59
2023/01/06 00:22:08;;;;;;;0.50;0.20;;;11.30;99.90;;;;;;5076197;28;20431;-59
2023/01/06 00:24:35;;;;;;;0.63;0.30;;;11.30;99.90;;;;;;5075344;28;20426;-60
2023/01/06 00:27:02;;;;;;;0.50;0.20;;;11.30;99.90;;;;;;5075197;28;20421;-59
2023/01/06 00:29:31;;;;;;;0.40;0.20;;;11.30;99.90;;;;;;5075733;28;20950;-59
2023/01/06 00:31:59;;;;;;;1.10;0.20;;;11.30;99.90;;;;;;5076555;28;20411;-59
2023/01/06 00:34:27;;;;;;;0.40;0.20;;;11.30;99.90;;;;;;5075525;28;20439;-59
2023/01/06 00:36:54;;;;;;;0.63;0.30;;;11.30;99.90;;;;;;5076535;28;20818;-59
2023/01/06 00:39:22;;;;;;;0.70;0.20;;;11.30;99.90;;;;;;5077890;28;20493;-59
2023/01/06 00:42:04;;;;;;;0.52;0.20;;;11.30;99.90;;;;;;5077374;28;20427;-60
2023/01/06 00:44:34;;;;;;;0.50;0.20;;;11.30;99.90;;;;;;5077032;28;20888;-59
2023/01/06 00:47:02;;;;;;;0.40;0.20;;;11.30;99.90;;;;;;5077425;28;20498;-59
2023/01/06 00:49:29;;;;;;;0.50;0.20;;;11.30;99.90;;;;;;5077315;28;20869;-59
2023/01/06 00:51:57;;;;;;;0.50;0.20;;;11.20;99.90;;;;;;5076853;28;20510;-60
2023/01/06 00:54:24;;;;;;;0.50;0.20;;;11.20;99.90;;;;;;5076451;28;20809;-59
2023/01/06 00:56:53;;;;;;;0.50;0.28;;;11.20;99.90;;;;;;5077393;28;20779;-59
2023/01/06 00:59:26;;;;;;;0.60;0.30;;;11.10;99.90;;;;;;5077318;28;20466;-59
2023/01/06 01:01:57;;;;;;;0.50;0.30;;;11.00;99.90;;;;;;5075782;28;20958;-59
2023/01/06 01:04:25;;;;;;;0.43;0.20;;;11.00;99.90;;;;;;5076712;28;20453;-60
2023/01/06 01:06:53;;;;;;;1.00;0.30;;;10.90;99.90;;;;;;5074679;28;20428;-59
2023/01/06 01:09:22;;;;;;;0.80;0.30;;;10.90;99.90;;;;;;5075641;28;20730;-59
2023/01/06 01:14:35;;;;;;;0.80;0.30;;;10.80;99.90;;;;;;5075377;28;20407;-59
2023/01/06 01:17:04;;;;;;;0.68;0.30;;;10.70;99.90;;;;;;5073953;28;20495;-59
2023/01/06 01:19:31;;;;;;;0.70;0.30;;;10.60;99.90;;;;;;5074853;28;20964;-59
2023/01/06 01:21:58;;;;;;;0.70;0.30;;;10.60;99.90;;;;;;5074856;28;20514;-59
2023/01/06 01:24:25;;;;;;;0.50;0.30;;;10.60;99.90;;;;;;5074699;28;20922;-59
2023/01/06 01:26:53;;;;;;;0.50;0.30;;;10.60;99.90;;;;;;5076016;28;20696;-59
2023/01/06 01:29:20;;;;;;;0.60;0.30;;;10.50;99.90;;;;;;5076455;28;20526;-59
2023/01/06 01:31:48;;;;;;;0.40;0.20;;;10.50;99.90;;;;;;5075713;28;20719;-60
2023/01/06 01:34:18;;;;;;;1.00;0.30;;;10.50;99.90;;;;;;5073707;28;20530;-58
2023/01/06 01:36:46;;;;;;;0.50;0.30;;;10.50;99.90;;;;;;5075165;28;20462;-59
2023/01/06 01:39:17;;;;;;;0.50;0.20;;;10.50;99.90;;;;;;5075130;28;20942;-59
2023/01/06 01:41:44;;;;;;;1.20;0.30;;;10.50;99.90;;;;;;5074004;28;21041;-59
2023/01/06 01:44:48;;;;;;;0.52;0.30;;;10.50;99.90;;;;;;5074844;28;20444;-60
2023/01/06 01:47:19;;;;;;;0.60;0.30;;;10.50;99.90;;;;;;5074396;28;20515;-59
2023/01/06 01:49:51;;;;;;;0.50;0.22;;;10.60;99.90;;;;;;5075039;28;20422;-59
2023/01/06 01:52:20;;;;;;;1.20;0.40;;;10.60;99.90;;;;;;5074695;28;20422;-59
2023/01/06 01:54:48;;;;;;;0.52;0.52;;;10.70;99.90;;;;;;5076236;28;20455;-60
2023/01/06 01:57:19;;;;;;;0.35;0.20;;;10.70;99.90;;;;;;5075385;28;20415;-60
2023/01/06 01:59:47;;;;;;;0.40;0.20;;;10.70;99.90;;;;;;5075599;28;20434;-59
2023/01/06 02:02:15;;;;;;;0.40;0.20;;;10.80;99.90;;;;;;5075169;28;20920;-60
2023/01/06 02:04:48;;;;;;;0.40;0.20;;;10.90;99.90;;;;;;5074997;28;20432;-59
2023/01/06 02:07:17;;;;;;;0.50;0.20;;;10.90;99.90;;;;;;5074738;28;20429;-60
2023/01/06 02:09:51;;;;;;;0.40;0.20;;;11.00;99.90;;;;;;5074293;28;20411;-60
2023/01/06 02:12:18;;;;;;;0.50;0.20;;;11.10;99.90;;;;;;5073427;28;20415;-60
2023/01/06 02:14:45;;;;;;;0.50;0.20;;;11.10;99.90;;;;;;5074615;28;20424;-60
2023/01/06 02:17:36;;;;;;;0.30;0.20;;;11.10;99.90;;;;;;5075105;28;20459;-60
2023/01/06 02:20:34;;;;;;;0.50;0.20;;;11.10;99.90;;;;;;5075473;28;20919;-60
2023/01/06 02:23:35;;;;;;;1.10;0.20;;;11.10;99.90;;;;;;5047010;28;20490;-60
2023/01/06 02:26:45;;;;;;;0.52;0.20;;;11.10;99.90;;;;;;5075129;28;20422;-59
2023/01/06 02:29:45;;;;;;;0.70;0.20;;;11.10;99.90;;;;;;5075080;28;20431;-60
2023/01/06 02:32:26;;;;;;;1.00;0.20;;;11.20;99.90;;;;;;5041113;28;20864;-60
2023/01/06 02:35:03;;;;;;;1.80;0.20;;;11.20;99.90;;;;;;5075430;28;20431;-60
2023/01/06 02:37:46;;;;;;;0.60;0.20;;;11.20;99.90;;;;;;5074100;28;20523;-60
2023/01/06 02:40:30;;;;;;;0.70;0.20;;;11.20;99.90;;;;;;5073452;28;20427;-60
2023/01/06 02:43:10;;;;;;;0.40;0.20;;;11.20;99.90;;;;;;5073015;28;20435;-60
2023/01/06 02:45:48;;;;;;;1.10;0.20;;;11.10;99.90;;;;;;5075316;28;20415;-59
2023/01/06 02:48:26;;;;;;;0.50;0.20;;;11.00;99.90;;;;;;5074159;28;20429;-59
2023/01/06 02:50:59;;;;;;;0.50;0.20;;;10.90;99.90;;;;;;5074715;28;20424;-59
2023/01/06 02:53:34;;;;;;;0.50;0.30;;;10.90;99.90;;;;;;5074743;28;20419;-59
2023/01/06 02:56:03;;;;;;;0.50;0.20;;;10.80;99.90;;;;;;5075169;28;20455;-59
2023/01/06 02:58:34;;;;;;;0.40;0.20;;;10.80;99.90;;;;;;5074979;28;20431;-59
2023/01/06 03:01:08;;;;;;;0.40;0.30;;;10.70;99.90;;;;;;5074353;28;20428;-60
2023/01/06 03:03:39;;;;;;;1.00;0.30;;;10.70;99.90;;;;;;5074034;28;20434;-60
2023/01/06 03:06:09;;;;;;;0.80;0.30;;;10.70;99.90;;;;;;5074275;28;20420;-60
2023/01/06 03:08:38;;;;;;;0.40;0.20;;;10.70;99.90;;;;;;5074727;28;20726;-60
2023/01/06 03:11:05;;;;;;;0.50;0.20;;;10.80;99.90;;;;;;5074281;28;20427;-60
2023/01/06 03:13:39;;;;;;;0.40;0.20;;;10.80;99.90;;;;;;5074990;28;20470;-60
2023/01/06 03:16:07;;;;;;;0.40;0.20;;;10.80;99.90;;;;;;5073370;28;20419;-60
2023/01/06 03:18:37;;;;;;;0.50;0.30;;;10.90;99.90;;;;;;5074595;28;20427;-59
2023/01/06 03:21:08;;;;;;;0.40;0.30;;;10.90;99.90;;;;;;5073442;28;20415;-60
2023/01/06 03:23:37;;;;;;;0.40;0.20;;;10.90;99.90;;;;;;5074053;28;20902;-60
2023/01/06 03:26:05;;;;;;;0.40;0.20;;;10.80;99.90;;;;;;5072915;28;20446;-60
2023/01/06 03:28:32;;;;;;;0.40;0.20;;;10.80;99.90;;;;;;5073809;28;20431;-60
2023/01/06 03:31:07;;;;;;;0.50;0.30;;;10.80;99.90;;;;;;5074155;28;20430;-59
2023/01/06 03:33:41;;;;;;;0.70;0.20;;;10.80;99.90;;;;;;5073886;28;20514;-60
2023/01/06 03:36:20;;;;;;;0.60;0.30;;;10.70;99.90;;;;;;5073566;28;20420;-60
2023/01/06 03:38:56;;;;;;;0.60;0.30;;;10.60;99.90;;;;;;5073959;28;20428;-61
2023/01/06 03:43:10;;;;;;;0.50;0.30;;;10.60;99.90;;;;;;5073812;28;20519;-60
2023/01/06 03:44:30;;;;;;;0.47;0.20;;;10.50;99.90;;;;;;5073207;28;20503;-59
2023/01/06 03:47:07;;;;;;;0.60;0.30;;;10.40;99.90;;;;;;5074188;28;20422;-59
2023/01/06 03:49:42;;;;;;;0.40;0.30;;;10.40;99.90;;;;;;5073824;28;20518;-60
2023/01/06 03:52:18;;;;;;;0.60;0.30;;;10.40;99.90;;;;;;5074412;28;20507;-60
2023/01/06 03:54:54;;;;;;;0.50;0.20;;;10.40;99.90;;;;;;5076501;28;20411;-59
2023/01/06 03:57:24;;;;;;;0.73;0.30;;;10.30;99.90;;;;;;5078271;28;20423;-60
2023/01/06 03:59:55;;;;;;;1.50;0.30;;;10.30;99.90;;;;;;5077980;28;20716;-59
2023/01/06 04:02:23;;;;;;;0.63;0.20;;;10.30;99.90;;;;;;5076933;28;20522;-59
2023/01/06 04:05:10;;;;;;;0.40;0.30;;;10.30;99.90;;;;;;5076886;28;20433;-60
2023/01/06 04:07:39;;;;;;;0.68;0.20;;;10.20;99.90;;;;;;5077554;28;20489;-59
2023/01/06 04:10:07;;;;;;;0.50;0.30;;;10.20;99.90;;;;;;5077109;28;20497;-59
2023/01/06 04:12:39;;;;;;;1.60;0.70;;;10.20;99.90;;;;;;5077665;28;20451;-61
2023/01/06 04:15:09;;;;;;;0.40;0.20;;;10.10;99.90;;;;;;5077739;28;20416;-60
2023/01/06 04:17:37;;;;;;;0.40;0.20;;;10.10;99.90;;;;;;5075928;28;20434;-60
2023/01/06 04:20:14;;;;;;;0.60;0.40;;;10.10;99.90;;;;;;5077309;28;20899;-59
2023/01/06 04:22:41;;;;;;;1.30;0.70;;;10.10;99.90;;;;;;5074816;28;20431;-60
2023/01/06 04:25:09;;;;;;;0.50;0.20;;;10.10;99.90;;;;;;5076745;28;20863;-60
2023/01/06 04:27:36;;;;;;;0.50;0.30;;;10.10;99.90;;;;;;5076774;28;20427;-60
2023/01/06 04:30:04;;;;;;;0.90;0.30;;;10.10;99.90;;;;;;5077498;28;20430;-61
2023/01/06 04:32:31;;;;;;;0.50;0.30;;;10.00;99.90;;;;;;5076682;28;20423;-60
2023/01/06 04:34:58;;;;;;;0.50;0.30;;;10.00;99.90;;;;;;5077004;28;20425;-59
2023/01/06 04:37:27;;;;;;;0.50;0.30;;;9.90;99.90;;;;;;5077431;28;20784;-59
2023/01/06 04:39:54;;;;;;;0.50;0.30;;;9.90;99.90;;;;;;5077314;28;20477;-60
2023/01/06 04:42:21;;;;;;;1.00;0.40;;;9.80;99.90;;;;;;5076320;28;20431;-60
2023/01/06 04:44:48;;;;;;;1.70;0.30;;;9.80;99.90;;;;;;5076790;28;20546;-60
2023/01/06 04:47:15;;;;;;;0.60;0.40;;;9.80;99.90;;;;;;5077018;28;20724;-59
2023/01/06 04:49:42;;;;;;;0.80;0.30;;;9.80;99.90;;;;;;5077083;28;20426;-59
2023/01/06 04:52:09;;;;;;;0.60;0.40;;;9.80;99.90;;;;;;5076519;28;20424;-60
2023/01/06 04:54:38;;;;;;;0.70;0.40;;;9.80;99.90;;;;;;5077093;28;20455;-59
2023/01/06 04:57:05;;;;;;;0.70;0.40;;;9.90;99.90;;;;;;5076833;28;20477;-59
2023/01/06 04:59:32;;;;;;;0.80;0.30;;;9.90;99.90;;;;;;5077303;28;20414;-61
2023/01/06 05:01:59;;;;;;;0.50;0.30;;;10.00;99.90;;;;;;5075731;28;20758;-60
2023/01/06 05:04:27;;;;;;;0.50;0.30;;;10.20;99.90;;;;;;5077103;28;20452;-60
2023/01/06 05:06:54;;;;;;;0.50;0.30;;;10.20;99.90;;;;;;5074665;28;20426;-60
2023/01/06 05:09:21;;;;;;;0.60;0.30;;;10.40;99.90;;;;;;5076984;28;20437;-60
2023/01/06 05:11:49;;;;;;;0.80;0.30;;;10.40;99.90;;;;;;5077443;28;20422;-59
2023/01/06 05:14:17;;;;;;;0.52;0.30;;;10.50;99.90;;;;;;5076406;28;20463;-61
2023/01/06 05:16:44;;;;;;;0.50;0.20;;;10.40;99.90;;;;;;5077201;28;20419;-59
2023/01/06 05:19:11;;;;;;;0.60;0.30;;;10.30;99.90;;;;;;5076024;28;20455;-60
2023/01/06 05:21:38;;;;;;;0.50;0.20;;;10.30;99.90;;;;;;5076452;28;20781;-60
2023/01/06 05:24:06;;;;;;;0.60;0.30;;;10.30;99.90;;;;;;5076620;28;20922;-59
2023/01/06 05:26:33;;;;;;;0.50;0.30;;;10.30;99.90;;;;;;5076215;28;20855;-59
2023/01/06 05:29:02;;;;;;;0.80;0.40;;;10.30;99.90;;;;;;5077027;28;20424;-60
2023/01/06 05:31:29;;;;;;;0.50;0.30;;;10.20;99.90;;;;;;5075796;28;20535;-60
2023/01/06 05:33:56;;;;;;;0.60;0.30;;;10.20;99.90;;;;;;5076993;28;20529;-60
2023/01/06 05:36:23;;;;;;;0.60;0.30;;;10.10;99.90;;;;;;5076523;28;20412;-59
2023/01/06 05:38:54;;;;;;;0.50;0.30;;;10.10;99.90;;;;;;5075283;28;20433;-59
2023/01/06 05:41:22;;;;;;;0.50;0.30;;;10.10;99.90;;;;;;5076764;28;20423;-60
2023/01/06 05:43:49;;;;;;;0.80;0.40;;;10.20;99.90;;;;;;5074916;28;20526;-60
2023/01/06 05:46:18;;;;;;;0.50;0.40;;;10.10;99.90;;;;;;5076257;28;20426;-61
2023/01/06 05:48:45;;;;;;;0.70;0.40;;;10.20;99.90;;;;;;5075867;28;20431;-60
2023/01/06 05:51:14;;;;;;;0.50;0.40;;;10.20;99.90;;;;;;5075915;28;20420;-61
2023/01/06 05:53:43;;;;;;;0.60;0.30;;;10.20;99.90;;;;;;5075896;28;20734;-60
2023/01/06 05:56:12;;;;;;;0.80;0.40;;;10.20;99.90;;;;;;5075341;28;20430;-60
2023/01/06 05:58:40;;;;;;;0.70;0.40;;;10.40;99.90;;;;;;5076060;28;20526;-59
2023/01/06 06:01:14;;;;;;;0.60;0.40;;;10.40;99.90;;;;;;5075731;28;20418;-59
2023/01/06 06:03:42;;;;;;;1.00;0.40;;;10.30;99.90;;;;;;5074550;28;20433;-62
2023/01/06 06:06:10;;;;;;;0.70;0.40;;;10.30;99.90;;;;;;5074571;28;20420;-60
2023/01/06 06:08:37;;;;;;;0.60;0.30;;;10.30;99.90;;;;;;5075594;28;20427;-60
2023/01/06 06:11:05;;;;;;;0.70;0.40;;;10.30;99.90;;;;;;5075384;28;20514;-60
2023/01/06 06:13:33;;;;;;;2.13;1.00;;;10.30;99.90;;;;;;5075139;28;20423;-61
2023/01/06 06:16:08;;;;;;;0.60;0.40;;;10.20;99.90;;;;;;5074531;28;20506;-59
2023/01/06 06:18:41;;;;;;;0.60;0.40;;;10.10;99.90;;;;;;5075332;28;20883;-59
2023/01/06 06:21:10;;;;;;;0.70;0.40;;;10.10;99.90;;;;;;5075146;28;20424;-60
2023/01/06 06:23:37;;;;;;;0.60;0.40;;;10.10;99.90;;;;;;5073812;28;20428;-60
2023/01/06 06:26:04;;;;;;;0.55;0.40;;;10.10;99.90;;;;;;5074809;28;20423;-59
2023/01/06 06:28:32;;;;;;;0.50;0.30;;;10.10;99.90;;;;;;5072623;28;20843;-60
2023/01/06 06:31:04;;;;;;;1.08;0.40;;;10.10;99.90;;;;;;5074578;28;20423;-60
2023/01/06 06:33:32;;;;;;;0.60;0.40;;;10.10;99.90;;;;;;5074486;28;20431;-59
2023/01/06 06:36:00;;;;;;;1.10;0.40;;;10.10;99.90;;;;;;5074619;28;20424;-59
2023/01/06 06:38:29;;;;;;;0.60;0.30;;;10.20;99.90;;;;;;5073407;28;20424;-60
2023/01/06 06:40:56;;;;;;;0.60;0.30;;;10.20;99.90;;;;;;5075335;28;20430;-60
2023/01/06 06:43:24;;;;;;;1.00;0.30;;;10.20;99.90;;;;;;5075037;28;20861;-60
2023/01/06 06:45:51;;;;;;;0.65;0.30;;;10.20;99.90;;;;;;5074977;28;20411;-59
2023/01/06 06:48:18;;;;;;;0.50;0.30;;;10.20;99.90;;;;;;5073993;28;20432;-60
2023/01/06 06:50:45;;;;;;;0.50;0.30;;;10.20;99.90;;;;;;5074819;28;20426;-59
2023/01/06 06:53:12;;;;;;;0.50;0.30;;;10.20;99.90;;;;;;5075576;28;20453;-59
2023/01/06 06:55:41;;;;;;;0.50;0.30;;;10.10;99.90;;;;;;5075216;28;20412;-59
2023/01/06 06:58:09;;;;;;;0.50;0.30;;;10.10;99.90;;;;;;5075215;28;20427;-59
2023/01/06 07:00:36;;;;;;;0.50;0.30;;;10.10;99.90;;;;;;5073658;28;20491;-59
2023/01/06 07:03:03;;;;;;;0.50;0.30;;;10.20;99.90;;;;;;5072657;28;21086;-60
2023/01/06 07:05:30;;;;;;;0.68;0.30;;;10.30;99.90;;;;;;5074115;28;20519;-60
2023/01/06 07:07:58;;;;;;;0.50;0.30;;;10.30;99.90;;;;;;5073503;28;20431;-60
2023/01/06 07:10:25;;;;;;;0.40;0.30;;;10.30;99.90;;;;;;5072841;28;20445;-60
2023/01/06 07:12:53;;;;;;;0.80;0.30;;;10.30;99.90;;;;;;5073292;28;20510;-60
2023/01/06 07:15:21;;;;;;;0.40;0.30;;;10.30;99.90;;;;;;5072673;28;20785;-60
2023/01/06 07:17:48;;;;;;;0.50;0.30;;;10.30;99.90;;;;;;5074197;28;20427;-59
2023/01/06 07:20:15;;;;;;;0.57;0.30;;;10.40;99.90;;;;;;5074253;28;20960;-59
2023/01/06 07:22:42;;;;;;;0.50;0.30;;;10.40;99.90;;;;;;5074350;28;20435;-60
2023/01/06 07:25:10;;;;;;;0.50;0.30;;;10.40;99.90;;;;;;5074513;28;20420;-61
2023/01/06 07:27:38;;;;;;;0.60;0.30;;;10.50;99.90;;;;;;5072515;28;20427;-60
2023/01/06 07:30:08;;;;;;;0.40;0.30;;;10.50;99.90;;;;;;5074198;28;20861;-61
2023/01/06 07:32:35;;;;;;;0.47;0.30;;;10.50;99.90;;;;;;5074270;28;20790;-60
2023/01/06 07:35:02;;;;;;;0.70;0.20;;;10.50;99.90;;;;;;5073190;28;20420;-60
2023/01/06 07:37:29;;;;;;;0.50;0.30;;;10.50;99.90;;;;;;5074232;28;20533;-60
2023/01/06 07:39:56;;;;;;;0.60;0.30;;;10.50;99.90;;;;;;5073139;28;20411;-59
2023/01/06 07:42:23;;;;;;;0.60;0.30;;;10.60;99.90;;;;;;5072327;28;20502;-59
2023/01/06 07:44:51;;;;;;;0.57;0.30;;;10.60;99.90;;;;;;5073005;28;20427;-60
2023/01/06 07:47:19;;;;;;;0.60;0.30;;;10.50;99.90;;;;;;5074398;28;20503;-60
2023/01/06 07:49:46;;;;;;;1.30;0.30;;;10.70;99.90;;;;;;5073959;28;20416;-60
2023/01/06 07:52:13;;;;;;;0.60;0.40;;;10.80;99.90;;;;;;5074180;28;20426;-60
2023/01/06 07:54:41;;;;;;;0.50;0.30;;;10.90;99.90;;;;;;5072592;28;20459;-59
2023/01/06 07:57:08;;;;;;;0.63;0.30;;;11.10;99.90;;;;;;5073287;28;20833;-60
2023/01/06 07:59:35;;;;;;;0.50;0.30;;;11.10;99.90;;;;;;5073291;28;20491;-59
2023/01/06 08:02:02;;;;;;;0.70;0.40;;;11.10;99.90;;;;;;5072282;28;20850;-60
2023/01/06 08:04:31;;;;;;;1.02;0.38;;;11.10;99.90;;;;;;5071915;28;20435;-60
2023/01/06 08:06:58;;;;;;;0.50;0.30;;;10.90;99.90;;;;;;5072674;28;20785;-60
2023/01/06 08:09:25;;;;;;;0.70;0.40;;;10.90;99.90;;;;;;5073126;28;20802;-59
2023/01/06 08:11:53;;;;;;;0.50;0.30;;;10.90;99.90;;;;;;5072348;28;20450;-60
2023/01/06 08:14:20;;;;;;;0.57;0.30;;;11.00;99.90;;;;;;5073051;28;20518;-60
2023/01/06 08:16:47;;;;;;;0.80;0.30;;;11.00;99.90;;;;;;5072816;28;20422;-59
2023/01/06 08:19:14;;;;;;;0.70;0.40;;;10.90;99.90;;;;;;5072973;28;20739;-59
2023/01/06 08:21:43;;;;;;;0.60;0.30;;;11.00;99.90;;;;;;5071890;28;20922;-59
2023/01/06 08:24:10;;;;;;;0.60;0.40;;;11.00;99.90;;;;;;5073451;28;20466;-59
2023/01/06 08:26:37;;;;;;;1.02;0.30;;;10.90;99.90;;;;;;5072884;28;20416;-58
2023/01/06 08:29:04;;;;;;;0.50;0.35;;;10.90;99.90;;;;;;5073095;28;20427;-58
2023/01/06 08:31:32;;;;;;;0.50;0.40;;;10.90;99.90;;;;;;5073256;28;20459;-56
2023/01/06 08:33:59;;;;;;;1.70;0.40;;;10.90;99.90;;;;;;5073585;28;20427;-58
2023/01/06 08:36:27;;;;;;;0.60;0.30;;;10.80;99.90;;;;;;5073617;28;20538;-58
2023/01/06 08:38:55;;;;;;;0.60;0.30;;;10.70;99.90;;;;;;5072468;28;20804;-57
2023/01/06 08:41:22;;;;;;;0.70;0.40;;;10.60;99.90;;;;;;5075521;28;20446;-58
2023/01/06 08:43:50;;;;;;;0.60;0.30;;;10.70;99.90;;;;;;5080760;28;20432;-55
2023/01/06 08:46:20;;;;;;;0.70;0.40;;;10.70;99.90;;;;;;5078570;28;20423;-58
2023/01/06 08:48:47;;;;;;;0.47;0.30;;;10.60;99.90;;;;;;5076916;28;20428;-58
2023/01/06 08:51:16;;;;;;;0.50;0.30;;;10.70;99.90;;;;;;5094644;28;20436;-58
2023/01/06 08:53:44;;;;;;;0.40;0.30;;;10.70;99.90;;;;;;5094949;28;20428;-58
2023/01/06 08:56:14;;;;;;;0.50;0.30;;;10.60;99.90;;;;;;5076656;28;20423;-58
2023/01/06 08:58:42;;;;;;;1.00;0.40;;;10.60;99.90;;;;;;5077791;28;20734;-56
2023/01/06 09:01:16;;;;;;;0.60;0.40;;;10.70;99.90;;;;;;5077273;28;20928;-58
2023/01/06 09:03:44;;;;;;;0.60;0.30;;;10.70;99.90;;;;;;5091856;28;20850;-58
2023/01/06 09:06:11;;;;;;;0.80;0.30;;;10.70;99.90;;;;;;5081944;28;20419;-58
2023/01/06 09:08:39;;;;;;;0.60;0.30;;;10.60;99.90;;;;;;5077185;28;20420;-59
2023/01/06 09:11:07;;;;;;;0.50;0.30;;;10.50;99.90;;;;;;5074094;28;20416;-59
2023/01/06 09:13:36;;;;;;;0.40;0.30;;;10.60;99.90;;;;;;5072881;28;20937;-59
2023/01/06 09:16:05;;;;;;;0.70;0.30;;;10.60;99.90;;;;;;5072738;28;20445;-58
2023/01/06 09:18:32;;;;;;;0.47;0.20;;;10.60;99.90;;;;;;5074016;28;20431;-59
2023/01/06 09:20:59;;;;;;;0.40;0.20;;;10.80;99.90;;;;;;5072487;28;20419;-59
2023/01/06 09:23:27;;;;;;;0.80;0.50;;;10.90;99.90;;;;;;5074474;28;20442;-59
2023/01/06 09:25:55;;;;;;;0.50;0.20;;;11.00;99.90;;;;;;5074705;28;20511;-60
2023/01/06 09:28:23;;;;;;;0.90;0.20;;;11.10;99.90;;;;;;5075817;28;20427;-59
2023/01/06 09:30:52;;;;;;;0.50;0.10;;;11.10;99.90;;;;;;5076408;28;20423;-59
2023/01/06 09:33:19;;;;;;;0.32;0.10;;;11.10;99.90;;;;;;5076446;28;20438;-60
2023/01/06 09:35:46;;;;;;;0.40;0.20;;;11.10;99.90;;;;;;5076098;28;20455;-59
2023/01/06 09:38:15;;;;;;;0.30;0.10;;;11.20;99.90;;;;;;5075862;28;20428;-59
2023/01/06 09:40:58;;;;;;;0.30;0.10;;;11.40;99.90;;;;;;5076658;28;20425;-58
2023/01/06 09:43:37;;;;;;;0.35;0.20;;;11.50;99.90;;;;;;5075652;28;20492;-57
2023/01/06 09:46:08;;;;;;;0.40;0.20;;;11.50;99.90;;;;;;5075454;28;20918;-59
2023/01/06 09:48:41;;;;;;;0.40;0.10;;;11.40;99.90;;;;;;5074582;28;20420;-59
2023/01/06 09:51:14;;;;;;;0.30;0.20;;;11.40;99.90;;;;;;5073715;28;20424;-59
2023/01/06 09:53:44;;;;;;;0.50;0.20;;;11.40;99.90;;;;;;5075852;28;20440;-59
2023/01/06 09:56:16;;;;;;;0.50;0.20;;;11.30;99.90;;;;;;5074825;28;20510;-60
2023/01/06 09:58:48;;;;;;;0.40;0.20;;;11.30;99.90;;;;;;5075233;28;20777;-60
2023/01/06 10:01:24;;;;;;;0.30;0.20;;;11.30;99.90;;;;;;5075458;28;20431;-60
2023/01/06 10:03:51;;;;;;;0.80;0.20;;;11.30;99.90;;;;;;5075203;28;20536;-60
2023/01/06 10:06:30;;;;;;;0.40;0.20;;;11.40;99.90;;;;;;5075086;28;20432;-60
2023/01/06 10:09:06;;;;;;;0.40;0.20;;;11.40;99.90;;;;;;5075153;28;20416;-60
2023/01/06 10:11:46;;;;;;;0.60;0.20;;;11.50;99.90;;;;;;5075274;28;20426;-60
2023/01/06 10:14:21;;;;;;;0.50;0.20;;;11.50;99.90;;;;;;5074157;28;20724;-60
2023/01/06 10:17:02;;;;;;;0.40;0.20;;;11.60;99.90;;;;;;5075095;28;20419;-60
2023/01/06 10:19:42;;;;;;;0.40;0.20;;;12.00;99.90;;;;;;5074863;28;20431;-60
2023/01/06 10:22:17;;;;;;;0.50;0.20;;;12.00;99.90;;;;;;5075541;28;20446;-60
2023/01/06 10:24:55;;;;;;;0.40;0.20;;;11.90;99.90;;;;;;5074107;28;20526;-58
2023/01/06 10:27:27;;;;;;;0.30;0.15;;;11.90;99.90;;;;;;5074958;28;20419;-61
2023/01/06 10:29:57;;;;;;;0.37;0.10;;;12.00;99.90;;;;;;5074289;28;20427;-58
2023/01/06 10:32:31;;;;;;;0.90;0.10;;;11.90;99.90;;;;;;5074466;28;20502;-58
2023/01/06 10:35:00;;;;;;;0.40;0.10;;;11.90;99.90;;;;;;5074730;28;20424;-59
2023/01/06 10:37:34;;;;;;;0.40;0.20;;;12.00;99.90;;;;;;5073410;28;20511;-58
2023/01/06 10:40:15;;;;;;;0.40;0.20;;;12.10;99.90;;;;;;5073525;28;20459;-59
2023/01/06 10:42:56;;;;;;;0.30;0.10;;;12.30;99.90;;;;;;5074097;28;20417;-59
2023/01/06 10:45:25;;;;;;;0.30;0.10;;;12.30;99.90;;;;;;5074407;28;20851;-59
2023/01/06 10:47:54;;;;;;;0.30;0.10;;;12.20;99.90;;;;;;5073750;28;20515;-59
2023/01/06 10:50:21;;;;;;;0.30;0.10;;;12.40;99.90;;;;;;5073296;28;20446;-59
2023/01/06 10:52:49;;;;;;;0.30;0.10;;;12.20;99.90;;;;;;5073996;28;20522;-59
2023/01/06 10:55:31;;;;;;;0.30;0.10;;;12.10;99.90;;;;;;5074889;28;20881;-59
2023/01/06 10:58:05;;;;;;;0.30;0.10;;;12.10;99.90;;;;;;5074511;28;20510;-59
2023/01/06 11:00:33;;;;;;;0.30;0.10;;;12.20;99.90;;;;;;5073933;28;20427;-59
2023/01/06 11:03:06;;;;;;;0.30;0.10;;;12.20;99.90;;;;;;5072921;28;20897;-59
2023/01/06 11:05:35;;;;;;;0.40;0.10;;;12.00;99.90;;;;;;5015048;28;20440;-59
2023/01/06 11:08:07;;;;;;;0.55;0.20;;;12.10;99.90;;;;;;5014080;28;20420;-59
2023/01/06 11:10:38;;;;;;;0.60;0.10;;;12.10;99.90;;;;;;5013050;28;20783;-59
2023/01/06 11:13:07;;;;;;;0.40;0.17;;;12.20;99.90;;;;;;5014524;28;20459;-59
2023/01/06 11:15:39;;;;;;;0.90;0.20;;;12.20;99.90;;;;;;5013339;28;20718;-59
2023/01/06 11:18:20;;;;;;;0.30;0.20;;;12.10;99.90;;;;;;5012581;28;20451;-60
2023/01/06 11:21:06;;;;;;;0.70;0.40;;;12.20;99.90;;;;;;5012370;28;20440;-59
2023/01/06 11:23:34;;;;;;;0.40;0.20;;;12.20;99.90;;;;;;5012102;28;20764;-60
2023/01/06 11:26:09;;;;;;;0.40;0.20;;;12.30;99.90;;;;;;5012392;28;20468;-59
2023/01/06 11:28:36;;;;;;;0.30;0.20;;;12.10;99.90;;;;;;5013162;28;20452;-59
2023/01/06 11:31:06;;;;;;;0.50;0.30;;;12.10;99.90;;;;;;5013021;28;20438;-59
2023/01/06 11:33:38;;;;;;;0.35;0.20;;;12.20;99.90;;;;;;5013566;28;20511;-59
2023/01/06 11:36:11;;;;;;;0.40;0.10;;;12.20;99.90;;;;;;5013106;28;20736;-59
2023/01/06 11:38:43;;;;;;;0.40;0.10;;;12.20;99.90;;;;;;5021965;28;20741;-59
2023/01/06 11:41:13;;;;;;;0.30;0.10;;;12.20;99.90;;;;;;5035447;28;20438;-59
2023/01/06 11:43:45;;;;;;;0.30;0.20;;;12.30;99.90;;;;;;5039602;28;20434;-59
2023/01/06 11:46:15;;;;;;;0.40;0.10;;;12.40;99.90;;;;;;5034023;28;20858;-59
2023/01/06 11:48:48;;;;;;;0.40;0.15;;;12.40;99.90;;;;;;5033938;28;20442;-59
2023/01/06 11:51:30;;;;;;;0.40;0.10;;;12.40;99.90;;;;;;5034050;28;20479;-59
2023/01/06 11:54:00;;;;;;;0.38;0.10;;;12.50;99.90;;;;;;5033745;28;20419;-59
2023/01/06 11:56:27;;;;;;;0.38;0.10;;;12.70;99.90;;;;;;5031912;28;20465;-60
2023/01/06 11:59:02;;;;;;;0.90;0.20;;;12.70;99.90;;;;;;5033629;28;20421;-59
2023/01/06 12:01:36;;;;;;;0.30;0.10;;;12.70;99.90;;;;;;5031168;28;20434;-59
2023/01/06 12:04:12;;;;;;;0.30;0.15;;;12.70;99.90;;;;;;5050198;28;20457;-59
2023/01/06 12:06:42;;;;;;;0.30;0.10;;;12.60;99.90;;;;;;5072248;28;20415;-59
2023/01/06 12:09:17;;;;;;;0.47;0.20;;;12.60;99.90;;;;;;5072812;28;20423;-59
2023/01/06 12:11:47;;;;;;;0.40;0.20;;;12.60;99.90;;;;;;5072689;28;20424;-59
2023/01/06 12:14:17;;;;;;;0.60;0.30;;;12.60;99.90;;;;;;5072493;28;20407;-59
2023/01/06 12:16:57;;;;;;;0.30;0.20;;;12.80;99.90;;;;;;5077386;28;20430;-59
2023/01/06 12:19:34;;;;;;;0.40;0.20;;;12.80;99.90;;;;;;5076633;28;20429;-60
2023/01/06 12:22:02;;;;;;;0.30;0.10;;;12.70;99.90;;;;;;5077401;28;20451;-61
2023/01/06 12:24:32;;;;;;;0.30;0.10;;;12.70;99.90;;;;;;5077002;28;20435;-59
2023/01/06 12:27:02;;;;;;;0.30;0.10;;;12.60;99.90;;;;;;5075999;28;20419;-59
2023/01/06 12:29:31;;;;;;;0.40;0.10;;;12.60;99.90;;;;;;5074933;28;20770;-62
2023/01/06 12:32:07;;;;;;;0.30;0.10;;;12.50;99.90;;;;;;5075717;28;20426;-59
2023/01/06 12:34:41;;;;;;;1.00;0.30;;;12.40;99.90;;;;;;5076419;28;20431;-59
2023/01/06 12:37:20;;;;;;;0.50;0.30;;;12.50;99.90;;;;;;5076477;28;20500;-61
2023/01/06 12:39:55;;;;;;;0.80;0.30;;;12.60;99.90;;;;;;5076550;28;20530;-60
2023/01/06 12:42:28;;;;;;;1.60;0.40;;;12.60;99.90;;;;;;5076001;28;20511;-60
2023/01/06 12:45:01;;;;;;;1.10;0.40;;;12.70;99.90;;;;;;5076726;28;20427;-60
2023/01/06 12:47:35;;;;;;;0.40;0.20;;;12.70;99.90;;;;;;5074690;28;20429;-60
2023/01/06 12:50:10;;;;;;;0.40;0.20;;;12.70;99.90;;;;;;5081728;28;20787;-60
2023/01/06 12:52:42;;;;;;;0.40;0.20;;;12.60;99.90;;;;;;5054450;28;20451;-59
2023/01/06 12:55:15;;;;;;;0.30;0.10;;;12.50;99.90;;;;;;5061107;28;20491;-59
2023/01/06 12:57:57;;;;;;;0.30;0.10;;;12.50;99.90;;;;;;5074202;28;20422;-58
2023/01/06 13:00:44;;;;;;;0.70;0.20;;;12.40;99.90;;;;;;5072368;28;20423;-60
2023/01/06 13:03:29;;;;;;;0.40;0.20;;;12.40;99.90;;;;;;5074233;28;20411;-58
2023/01/06 13:06:26;;;;;;;0.40;0.20;;;12.50;99.90;;;;;;5075250;28;20871;-59
2023/01/06 13:09:05;;;;;;;0.50;0.20;;;12.50;99.90;;;;;;5066546;28;20441;-59